sensor_id;sensor_type;location;lat;lon;timestamp;P1;durP1;ratioP1;P2;durP2;ratioP2
21527;SDS011;10925;49.102;-0.370;2022-11-20T00:01:04;10.57;;;4.63;;
21527;SDS011;10925;49.102;-0.370;2022-11-20T00:03:31;12.05;;;5.40;;
21527;SDS011;10925;49.102;-0.370;2022-11-20T00:06:01;11.98;;;5.40;;
21527;SDS011;10925;49.102;-0.370;2022-11-20T00:08:28;11.77;;;5.72;;
21527;SDS011;10925;49.102;-0.370;2022-11-20T00:10:54;13.93;;;5.70;;
21527;SDS011;10925;49.102;-0.370;2022-11-20T00:13:20;10.35;;;4.88;;
21527;SDS011;10925;49.102;-0.370;2022-11-20T00:15:45;12.13;;;5.18;;
21527;SDS011;10925;49.102;-0.370;2022-11-20T00:18:12;11.65;;;5.20;;
21527;SDS011;10925;49.102;-0.370;2022-11-20T00:20:39;11.45;;;5.30;;
21527;SDS011;10925;49.102;-0.370;2022-11-20T00:23:05;10.85;;;5.43;;
21527;SDS011;10925;49.102;-0.370;2022-11-20T00:25:36;12.95;;;5.57;;
21527;SDS011;10925;49.102;-0.370;2022-11-20T00:28:02;18.60;;;5.30;;
21527;SDS011;10925;49.102;-0.370;2022-11-20T00:30:29;11.13;;;5.50;;
21527;SDS011;10925;49.102;-0.370;2022-11-20T00:32:56;11.43;;;5.47;;
21527;SDS011;10925;49.102;-0.370;2022-11-20T00:35:23;12.38;;;5.57;;
21527;SDS011;10925;49.102;-0.370;2022-11-20T00:37:50;16.67;;;5.43;;
21527;SDS011;10925;49.102;-0.370;2022-11-20T00:40:16;11.00;;;5.65;;
21527;SDS011;10925;49.102;-0.370;2022-11-20T00:42:43;13.35;;;5.18;;
21527;SDS011;10925;49.102;-0.370;2022-11-20T00:45:09;16.63;;;6.00;;
21527;SDS011;10925;49.102;-0.370;2022-11-20T00:47:36;7.65;;;4.47;;
21527;SDS011;10925;49.102;-0.370;2022-11-20T00:50:02;14.38;;;5.20;;
21527;SDS011;10925;49.102;-0.370;2022-11-20T00:52:27;11.95;;;4.75;;
21527;SDS011;10925;49.102;-0.370;2022-11-20T00:54:52;13.38;;;5.20;;
21527;SDS011;10925;49.102;-0.370;2022-11-20T00:57:19;10.52;;;4.50;;
21527;SDS011;10925;49.102;-0.370;2022-11-20T00:59:46;12.45;;;5.18;;
21527;SDS011;10925;49.102;-0.370;2022-11-20T01:02:12;10.38;;;5.25;;
21527;SDS011;10925;49.102;-0.370;2022-11-20T01:04:39;9.18;;;5.15;;
21527;SDS011;10925;49.102;-0.370;2022-11-20T01:07:06;10.13;;;4.55;;
21527;SDS011;10925;49.102;-0.370;2022-11-20T01:09:33;11.55;;;6.30;;
21527;SDS011;10925;49.102;-0.370;2022-11-20T01:12:00;12.15;;;5.35;;
21527;SDS011;10925;49.102;-0.370;2022-11-20T01:14:26;11.23;;;5.60;;
21527;SDS011;10925;49.102;-0.370;2022-11-20T01:16:53;14.13;;;5.60;;
21527;SDS011;10925;49.102;-0.370;2022-11-20T01:19:20;14.73;;;5.55;;
21527;SDS011;10925;49.102;-0.370;2022-11-20T01:21:50;10.85;;;4.78;;
21527;SDS011;10925;49.102;-0.370;2022-11-20T01:24:17;12.65;;;5.45;;
21527;SDS011;10925;49.102;-0.370;2022-11-20T01:26:43;10.52;;;5.38;;
21527;SDS011;10925;49.102;-0.370;2022-11-20T01:29:14;10.13;;;4.95;;
21527;SDS011;10925;49.102;-0.370;2022-11-20T01:31:42;10.68;;;5.45;;
21527;SDS011;10925;49.102;-0.370;2022-11-20T01:34:10;12.32;;;5.40;;
21527;SDS011;10925;49.102;-0.370;2022-11-20T01:36:36;10.00;;;5.38;;
21527;SDS011;10925;49.102;-0.370;2022-11-20T01:39:05;10.27;;;4.72;;
21527;SDS011;10925;49.102;-0.370;2022-11-20T01:41:32;9.88;;;5.28;;
21527;SDS011;10925;49.102;-0.370;2022-11-20T01:44:19;12.27;;;5.03;;
21527;SDS011;10925;49.102;-0.370;2022-11-20T01:51:48;11.60;;;4.78;;
21527;SDS011;10925;49.102;-0.370;2022-11-20T01:54:19;11.02;;;4.93;;
21527;SDS011;10925;49.102;-0.370;2022-11-20T01:56:48;10.40;;;5.10;;
21527;SDS011;10925;49.102;-0.370;2022-11-20T01:59:17;14.98;;;5.20;;
21527;SDS011;10925;49.102;-0.370;2022-11-20T02:01:44;9.18;;;4.40;;
21527;SDS011;10925;49.102;-0.370;2022-11-20T02:04:11;7.25;;;4.68;;
21527;SDS011;10925;49.102;-0.370;2022-11-20T02:06:40;14.82;;;4.60;;
21527;SDS011;10925;49.102;-0.370;2022-11-20T02:09:08;10.25;;;4.25;;
21527;SDS011;10925;49.102;-0.370;2022-11-20T02:11:34;9.98;;;4.00;;
21527;SDS011;10925;49.102;-0.370;2022-11-20T02:14:01;10.75;;;4.15;;
21527;SDS011;10925;49.102;-0.370;2022-11-20T02:16:29;10.68;;;3.78;;
21527;SDS011;10925;49.102;-0.370;2022-11-20T02:18:55;12.90;;;4.70;;
21527;SDS011;10925;49.102;-0.370;2022-11-20T02:24:10;8.73;;;3.97;;
21527;SDS011;10925;49.102;-0.370;2022-11-20T02:26:53;6.53;;;3.53;;
21527;SDS011;10925;49.102;-0.370;2022-11-20T02:29:31;11.13;;;4.03;;
21527;SDS011;10925;49.102;-0.370;2022-11-20T02:31:59;11.65;;;3.88;;
21527;SDS011;10925;49.102;-0.370;2022-11-20T02:34:27;8.80;;;3.00;;
21527;SDS011;10925;49.102;-0.370;2022-11-20T02:36:55;8.15;;;3.25;;
21527;SDS011;10925;49.102;-0.370;2022-11-20T02:39:23;6.15;;;3.50;;
21527;SDS011;10925;49.102;-0.370;2022-11-20T02:41:52;11.93;;;3.55;;
21527;SDS011;10925;49.102;-0.370;2022-11-20T02:44:19;13.02;;;3.25;;
21527;SDS011;10925;49.102;-0.370;2022-11-20T02:46:46;9.45;;;3.05;;
21527;SDS011;10925;49.102;-0.370;2022-11-20T02:49:11;7.00;;;3.40;;
21527;SDS011;10925;49.102;-0.370;2022-11-20T02:51:37;11.93;;;3.53;;
21527;SDS011;10925;49.102;-0.370;2022-11-20T02:54:02;6.82;;;3.28;;
21527;SDS011;10925;49.102;-0.370;2022-11-20T02:56:29;8.80;;;3.17;;
21527;SDS011;10925;49.102;-0.370;2022-11-20T02:58:56;9.60;;;3.30;;
21527;SDS011;10925;49.102;-0.370;2022-11-20T03:01:22;8.68;;;3.22;;
21527;SDS011;10925;49.102;-0.370;2022-11-20T03:03:49;5.68;;;3.28;;
21527;SDS011;10925;49.102;-0.370;2022-11-20T03:06:16;6.65;;;3.17;;
21527;SDS011;10925;49.102;-0.370;2022-11-20T03:08:43;12.02;;;3.80;;
21527;SDS011;10925;49.102;-0.370;2022-11-20T03:11:10;8.50;;;3.08;;
21527;SDS011;10925;49.102;-0.370;2022-11-20T03:13:37;8.93;;;3.20;;
21527;SDS011;10925;49.102;-0.370;2022-11-20T03:16:06;10.00;;;3.35;;
21527;SDS011;10925;49.102;-0.370;2022-11-20T03:18:32;5.60;;;2.88;;
21527;SDS011;10925;49.102;-0.370;2022-11-20T03:20:59;7.13;;;2.67;;
21527;SDS011;10925;49.102;-0.370;2022-11-20T03:23:25;9.13;;;3.30;;
21527;SDS011;10925;49.102;-0.370;2022-11-20T03:25:52;8.95;;;3.30;;
21527;SDS011;10925;49.102;-0.370;2022-11-20T03:28:19;11.07;;;3.20;;
21527;SDS011;10925;49.102;-0.370;2022-11-20T03:30:45;9.55;;;3.00;;
21527;SDS011;10925;49.102;-0.370;2022-11-20T03:33:11;7.93;;;2.90;;
21527;SDS011;10925;49.102;-0.370;2022-11-20T03:35:37;6.35;;;2.63;;
21527;SDS011;10925;49.102;-0.370;2022-11-20T03:38:04;4.32;;;2.90;;
21527;SDS011;10925;49.102;-0.370;2022-11-20T03:40:31;9.13;;;2.63;;
21527;SDS011;10925;49.102;-0.370;2022-11-20T03:42:56;9.13;;;2.30;;
21527;SDS011;10925;49.102;-0.370;2022-11-20T03:45:23;6.45;;;2.38;;
21527;SDS011;10925;49.102;-0.370;2022-11-20T03:47:50;9.98;;;2.90;;
21527;SDS011;10925;49.102;-0.370;2022-11-20T03:50:16;9.13;;;3.00;;
21527;SDS011;10925;49.102;-0.370;2022-11-20T03:52:43;5.85;;;2.80;;
21527;SDS011;10925;49.102;-0.370;2022-11-20T03:55:10;7.97;;;2.75;;
21527;SDS011;10925;49.102;-0.370;2022-11-20T03:57:35;8.60;;;2.75;;
21527;SDS011;10925;49.102;-0.370;2022-11-20T04:00:02;7.30;;;2.88;;
21527;SDS011;10925;49.102;-0.370;2022-11-20T04:02:29;8.63;;;3.03;;
21527;SDS011;10925;49.102;-0.370;2022-11-20T04:04:55;10.00;;;3.05;;
21527;SDS011;10925;49.102;-0.370;2022-11-20T04:07:20;6.93;;;2.63;;
21527;SDS011;10925;49.102;-0.370;2022-11-20T04:09:47;7.28;;;2.97;;
21527;SDS011;10925;49.102;-0.370;2022-11-20T04:12:14;4.90;;;2.42;;
21527;SDS011;10925;49.102;-0.370;2022-11-20T04:14:41;8.10;;;2.88;;
21527;SDS011;10925;49.102;-0.370;2022-11-20T04:17:07;11.40;;;2.90;;
21527;SDS011;10925;49.102;-0.370;2022-11-20T04:19:34;8.63;;;2.85;;
21527;SDS011;10925;49.102;-0.370;2022-11-20T04:22:01;8.35;;;3.08;;
21527;SDS011;10925;49.102;-0.370;2022-11-20T04:24:28;6.13;;;3.28;;
21527;SDS011;10925;49.102;-0.370;2022-11-20T04:26:54;9.07;;;3.05;;
21527;SDS011;10925;49.102;-0.370;2022-11-20T04:29:21;7.45;;;3.05;;
21527;SDS011;10925;49.102;-0.370;2022-11-20T04:31:48;8.00;;;3.03;;
21527;SDS011;10925;49.102;-0.370;2022-11-20T04:34:13;5.60;;;2.80;;
21527;SDS011;10925;49.102;-0.370;2022-11-20T04:36:40;9.32;;;2.67;;
21527;SDS011;10925;49.102;-0.370;2022-11-20T04:39:11;9.60;;;2.88;;
21527;SDS011;10925;49.102;-0.370;2022-11-20T04:41:38;7.95;;;3.38;;
21527;SDS011;10925;49.102;-0.370;2022-11-20T04:44:05;6.53;;;3.03;;
21527;SDS011;10925;49.102;-0.370;2022-11-20T04:46:36;8.00;;;3.40;;
21527;SDS011;10925;49.102;-0.370;2022-11-20T04:49:03;9.77;;;3.60;;
21527;SDS011;10925;49.102;-0.370;2022-11-20T04:51:30;7.00;;;3.80;;
21527;SDS011;10925;49.102;-0.370;2022-11-20T04:53:57;9.95;;;3.63;;
21527;SDS011;10925;49.102;-0.370;2022-11-20T04:56:23;11.60;;;3.55;;
21527;SDS011;10925;49.102;-0.370;2022-11-20T04:58:50;10.52;;;3.13;;
21527;SDS011;10925;49.102;-0.370;2022-11-20T05:01:18;8.60;;;3.72;;
21527;SDS011;10925;49.102;-0.370;2022-11-20T05:03:45;10.20;;;3.35;;
21527;SDS011;10925;49.102;-0.370;2022-11-20T05:06:12;11.75;;;3.85;;
21527;SDS011;10925;49.102;-0.370;2022-11-20T05:08:40;9.20;;;3.58;;
21527;SDS011;10925;49.102;-0.370;2022-11-20T05:11:07;5.80;;;3.60;;
21527;SDS011;10925;49.102;-0.370;2022-11-20T05:13:34;5.90;;;3.28;;
21527;SDS011;10925;49.102;-0.370;2022-11-20T05:18:32;6.00;;;3.10;;
21527;SDS011;10925;49.102;-0.370;2022-11-20T05:20:59;7.00;;;3.80;;
21527;SDS011;10925;49.102;-0.370;2022-11-20T05:23:26;9.32;;;3.60;;
21527;SDS011;10925;49.102;-0.370;2022-11-20T05:25:52;10.63;;;3.47;;
21527;SDS011;10925;49.102;-0.370;2022-11-20T05:28:24;7.55;;;3.53;;
21527;SDS011;10925;49.102;-0.370;2022-11-20T05:30:51;10.73;;;3.72;;
21527;SDS011;10925;49.102;-0.370;2022-11-20T05:33:17;8.80;;;3.70;;
21527;SDS011;10925;49.102;-0.370;2022-11-20T05:35:45;7.45;;;3.45;;
21527;SDS011;10925;49.102;-0.370;2022-11-20T05:38:11;6.70;;;3.20;;
21527;SDS011;10925;49.102;-0.370;2022-11-20T05:40:37;6.18;;;3.10;;
21527;SDS011;10925;49.102;-0.370;2022-11-20T05:43:02;7.03;;;3.65;;
21527;SDS011;10925;49.102;-0.370;2022-11-20T05:45:28;10.15;;;3.50;;
21527;SDS011;10925;49.102;-0.370;2022-11-20T05:47:57;6.65;;;3.33;;
21527;SDS011;10925;49.102;-0.370;2022-11-20T05:50:24;5.07;;;3.17;;
21527;SDS011;10925;49.102;-0.370;2022-11-20T05:52:51;8.63;;;3.22;;
21527;SDS011;10925;49.102;-0.370;2022-11-20T05:55:17;5.13;;;3.40;;
21527;SDS011;10925;49.102;-0.370;2022-11-20T05:57:44;5.05;;;3.22;;
21527;SDS011;10925;49.102;-0.370;2022-11-20T06:00:11;6.20;;;3.10;;
21527;SDS011;10925;49.102;-0.370;2022-11-20T06:02:38;4.68;;;3.17;;
21527;SDS011;10925;49.102;-0.370;2022-11-20T06:05:05;6.97;;;3.30;;
21527;SDS011;10925;49.102;-0.370;2022-11-20T06:07:31;6.40;;;3.25;;
21527;SDS011;10925;49.102;-0.370;2022-11-20T06:09:58;5.93;;;3.22;;
21527;SDS011;10925;49.102;-0.370;2022-11-20T06:12:25;4.72;;;3.00;;
21527;SDS011;10925;49.102;-0.370;2022-11-20T06:14:52;6.35;;;3.50;;
21527;SDS011;10925;49.102;-0.370;2022-11-20T06:17:18;5.90;;;2.88;;
21527;SDS011;10925;49.102;-0.370;2022-11-20T06:19:45;7.25;;;3.40;;
21527;SDS011;10925;49.102;-0.370;2022-11-20T06:22:11;6.70;;;2.70;;
21527;SDS011;10925;49.102;-0.370;2022-11-20T06:24:38;3.67;;;2.45;;
21527;SDS011;10925;49.102;-0.370;2022-11-20T06:27:05;3.60;;;2.83;;
21527;SDS011;10925;49.102;-0.370;2022-11-20T06:29:32;4.97;;;2.70;;
21527;SDS011;10925;49.102;-0.370;2022-11-20T06:31:59;4.03;;;2.65;;
21527;SDS011;10925;49.102;-0.370;2022-11-20T06:34:26;4.03;;;2.45;;
21527;SDS011;10925;49.102;-0.370;2022-11-20T06:36:53;4.55;;;3.28;;
21527;SDS011;10925;49.102;-0.370;2022-11-20T06:39:19;4.15;;;2.63;;
21527;SDS011;10925;49.102;-0.370;2022-11-20T06:41:46;2.75;;;2.15;;
21527;SDS011;10925;49.102;-0.370;2022-11-20T06:44:12;4.45;;;2.30;;
21527;SDS011;10925;49.102;-0.370;2022-11-20T06:46:39;5.45;;;3.30;;
21527;SDS011;10925;49.102;-0.370;2022-11-20T06:49:06;7.20;;;3.55;;
21527;SDS011;10925;49.102;-0.370;2022-11-20T06:51:32;7.15;;;4.07;;
21527;SDS011;10925;49.102;-0.370;2022-11-20T06:53:58;5.35;;;3.42;;
21527;SDS011;10925;49.102;-0.370;2022-11-20T06:56:24;4.25;;;2.72;;
21527;SDS011;10925;49.102;-0.370;2022-11-20T06:58:51;8.02;;;3.05;;
21527;SDS011;10925;49.102;-0.370;2022-11-20T07:01:17;3.58;;;2.85;;
21527;SDS011;10925;49.102;-0.370;2022-11-20T07:03:44;6.30;;;3.42;;
21527;SDS011;10925;49.102;-0.370;2022-11-20T07:06:16;4.18;;;3.13;;
21527;SDS011;10925;49.102;-0.370;2022-11-20T07:11:12;4.50;;;3.10;;
21527;SDS011;10925;49.102;-0.370;2022-11-20T07:13:39;7.55;;;3.70;;
21527;SDS011;10925;49.102;-0.370;2022-11-20T07:16:06;4.47;;;2.70;;
21527;SDS011;10925;49.102;-0.370;2022-11-20T07:18:33;3.25;;;2.53;;
21527;SDS011;10925;49.102;-0.370;2022-11-20T07:21:01;3.72;;;3.03;;
21527;SDS011;10925;49.102;-0.370;2022-11-20T07:23:28;4.15;;;2.90;;
21527;SDS011;10925;49.102;-0.370;2022-11-20T07:25:55;4.97;;;2.60;;
21527;SDS011;10925;49.102;-0.370;2022-11-20T07:28:21;3.13;;;2.58;;
21527;SDS011;10925;49.102;-0.370;2022-11-20T07:30:50;3.83;;;2.80;;
21527;SDS011;10925;49.102;-0.370;2022-11-20T07:33:18;2.55;;;2.30;;
21527;SDS011;10925;49.102;-0.370;2022-11-20T07:35:44;3.15;;;2.75;;
21527;SDS011;10925;49.102;-0.370;2022-11-20T07:38:11;3.13;;;2.50;;
21527;SDS011;10925;49.102;-0.370;2022-11-20T07:40:38;2.60;;;2.40;;
21527;SDS011;10925;49.102;-0.370;2022-11-20T07:43:04;2.80;;;2.22;;
21527;SDS011;10925;49.102;-0.370;2022-11-20T07:45:30;3.72;;;2.30;;
21527;SDS011;10925;49.102;-0.370;2022-11-20T07:47:57;3.45;;;2.45;;
21527;SDS011;10925;49.102;-0.370;2022-11-20T07:50:23;2.92;;;2.60;;
21527;SDS011;10925;49.102;-0.370;2022-11-20T07:52:49;4.70;;;2.67;;
21527;SDS011;10925;49.102;-0.370;2022-11-20T07:55:15;2.80;;;2.53;;
21527;SDS011;10925;49.102;-0.370;2022-11-20T07:57:42;3.78;;;2.55;;
21527;SDS011;10925;49.102;-0.370;2022-11-20T08:00:09;2.20;;;1.98;;
21527;SDS011;10925;49.102;-0.370;2022-11-20T08:02:40;2.40;;;2.08;;
21527;SDS011;10925;49.102;-0.370;2022-11-20T08:05:07;2.72;;;2.20;;
21527;SDS011;10925;49.102;-0.370;2022-11-20T08:07:37;3.58;;;2.25;;
21527;SDS011;10925;49.102;-0.370;2022-11-20T08:10:04;2.95;;;1.95;;
21527;SDS011;10925;49.102;-0.370;2022-11-20T08:12:31;2.67;;;2.05;;
21527;SDS011;10925;49.102;-0.370;2022-11-20T08:15:16;2.83;;;2.15;;
21527;SDS011;10925;49.102;-0.370;2022-11-20T08:17:43;3.33;;;2.60;;
21527;SDS011;10925;49.102;-0.370;2022-11-20T08:20:30;3.95;;;2.42;;
21527;SDS011;10925;49.102;-0.370;2022-11-20T08:22:59;2.40;;;2.20;;
21527;SDS011;10925;49.102;-0.370;2022-11-20T08:25:25;8.50;;;2.35;;
21527;SDS011;10925;49.102;-0.370;2022-11-20T08:27:52;5.45;;;3.15;;
21527;SDS011;10925;49.102;-0.370;2022-11-20T08:30:17;5.13;;;3.45;;
21527;SDS011;10925;49.102;-0.370;2022-11-20T08:32:44;5.25;;;2.58;;
21527;SDS011;10925;49.102;-0.370;2022-11-20T08:35:10;5.75;;;2.72;;
21527;SDS011;10925;49.102;-0.370;2022-11-20T08:37:36;6.68;;;2.78;;
21527;SDS011;10925;49.102;-0.370;2022-11-20T08:40:05;4.90;;;2.42;;
21527;SDS011;10925;49.102;-0.370;2022-11-20T08:42:32;6.00;;;2.05;;
21527;SDS011;10925;49.102;-0.370;2022-11-20T08:44:57;4.10;;;2.30;;
21527;SDS011;10925;49.102;-0.370;2022-11-20T08:47:24;6.72;;;2.50;;
21527;SDS011;10925;49.102;-0.370;2022-11-20T08:49:50;7.70;;;3.10;;
21527;SDS011;10925;49.102;-0.370;2022-11-20T08:52:17;20.90;;;9.07;;
21527;SDS011;10925;49.102;-0.370;2022-11-20T08:54:44;10.82;;;6.05;;
21527;SDS011;10925;49.102;-0.370;2022-11-20T08:57:10;6.47;;;3.00;;
21527;SDS011;10925;49.102;-0.370;2022-11-20T08:59:37;5.88;;;2.90;;
21527;SDS011;10925;49.102;-0.370;2022-11-20T09:02:02;4.22;;;2.20;;
21527;SDS011;10925;49.102;-0.370;2022-11-20T09:04:29;9.95;;;2.80;;
21527;SDS011;10925;49.102;-0.370;2022-11-20T09:06:59;8.05;;;2.17;;
21527;SDS011;10925;49.102;-0.370;2022-11-20T09:09:25;8.73;;;2.35;;
21527;SDS011;10925;49.102;-0.370;2022-11-20T09:11:51;8.75;;;3.10;;
21527;SDS011;10925;49.102;-0.370;2022-11-20T09:14:18;12.75;;;3.50;;
21527;SDS011;10925;49.102;-0.370;2022-11-20T09:16:48;8.38;;;2.95;;
21527;SDS011;10925;49.102;-0.370;2022-11-20T09:19:14;9.43;;;2.30;;
21527;SDS011;10925;49.102;-0.370;2022-11-20T09:22:03;10.30;;;3.83;;
21527;SDS011;10925;49.102;-0.370;2022-11-20T09:24:29;8.50;;;2.83;;
21527;SDS011;10925;49.102;-0.370;2022-11-20T09:26:54;9.90;;;2.67;;
21527;SDS011;10925;49.102;-0.370;2022-11-20T09:29:21;9.57;;;2.80;;
21527;SDS011;10925;49.102;-0.370;2022-11-20T09:31:49;11.20;;;2.38;;
21527;SDS011;10925;49.102;-0.370;2022-11-20T09:34:17;13.38;;;2.47;;
21527;SDS011;10925;49.102;-0.370;2022-11-20T09:36:42;8.68;;;1.90;;
21527;SDS011;10925;49.102;-0.370;2022-11-20T09:39:14;18.70;;;2.55;;
21527;SDS011;10925;49.102;-0.370;2022-11-20T09:46:51;18.50;;;2.67;;
21527;SDS011;10925;49.102;-0.370;2022-11-20T09:54:47;15.90;;;3.00;;
21527;SDS011;10925;49.102;-0.370;2022-11-20T09:57:19;13.20;;;2.72;;
21527;SDS011;10925;49.102;-0.370;2022-11-20T09:59:56;16.70;;;2.88;;
21527;SDS011;10925;49.102;-0.370;2022-11-20T10:05:10;16.77;;;2.70;;
21527;SDS011;10925;49.102;-0.370;2022-11-20T10:07:52;19.80;;;2.40;;
21527;SDS011;10925;49.102;-0.370;2022-11-20T10:11:04;17.15;;;2.78;;
21527;SDS011;10925;49.102;-0.370;2022-11-20T10:15:46;19.85;;;2.75;;
21527;SDS011;10925;49.102;-0.370;2022-11-20T10:26:57;27.50;;;3.35;;
21527;SDS011;10925;49.102;-0.370;2022-11-20T10:31:32;30.80;;;4.03;;
21527;SDS011;10925;49.102;-0.370;2022-11-20T10:34:01;27.77;;;4.63;;
21527;SDS011;10925;49.102;-0.370;2022-11-20T10:36:30;25.65;;;3.40;;
21527;SDS011;10925;49.102;-0.370;2022-11-20T10:39:06;29.80;;;3.90;;
21527;SDS011;10925;49.102;-0.370;2022-11-20T10:41:41;21.90;;;3.83;;
21527;SDS011;10925;49.102;-0.370;2022-11-20T10:44:12;29.70;;;4.20;;
21527;SDS011;10925;49.102;-0.370;2022-11-20T10:46:43;30.88;;;3.50;;
21527;SDS011;10925;49.102;-0.370;2022-11-20T10:49:15;24.85;;;4.03;;
21527;SDS011;10925;49.102;-0.370;2022-11-20T10:56:45;27.80;;;4.63;;
21527;SDS011;10925;49.102;-0.370;2022-11-20T11:02:01;25.65;;;4.03;;
21527;SDS011;10925;49.102;-0.370;2022-11-20T11:07:12;23.88;;;3.53;;
21527;SDS011;10925;49.102;-0.370;2022-11-20T11:09:39;33.28;;;3.85;;
21527;SDS011;10925;49.102;-0.370;2022-11-20T11:12:08;21.88;;;3.22;;
21527;SDS011;10925;49.102;-0.370;2022-11-20T11:14:42;21.02;;;4.10;;
21527;SDS011;10925;49.102;-0.370;2022-11-20T11:17:17;22.92;;;3.75;;
21527;SDS011;10925;49.102;-0.370;2022-11-20T11:19:44;20.02;;;3.72;;
21527;SDS011;10925;49.102;-0.370;2022-11-20T11:22:15;23.45;;;3.65;;
21527;SDS011;10925;49.102;-0.370;2022-11-20T11:24:51;20.75;;;3.72;;
21527;SDS011;10925;49.102;-0.370;2022-11-20T11:27:16;19.85;;;4.00;;
21527;SDS011;10925;49.102;-0.370;2022-11-20T11:29:42;24.20;;;3.90;;
21527;SDS011;10925;49.102;-0.370;2022-11-20T11:32:12;31.80;;;4.05;;
21527;SDS011;10925;49.102;-0.370;2022-11-20T11:34:39;28.00;;;5.03;;
21527;SDS011;10925;49.102;-0.370;2022-11-20T11:37:10;23.38;;;3.58;;
21527;SDS011;10925;49.102;-0.370;2022-11-20T11:39:38;21.40;;;2.70;;
21527;SDS011;10925;49.102;-0.370;2022-11-20T11:42:07;24.08;;;4.05;;
21527;SDS011;10925;49.102;-0.370;2022-11-20T11:44:35;31.15;;;4.25;;
21527;SDS011;10925;49.102;-0.370;2022-11-20T11:47:23;26.65;;;4.35;;
21527;SDS011;10925;49.102;-0.370;2022-11-20T11:50:00;28.55;;;3.72;;
21527;SDS011;10925;49.102;-0.370;2022-11-20T11:52:27;28.05;;;4.30;;
21527;SDS011;10925;49.102;-0.370;2022-11-20T11:54:55;28.45;;;4.10;;
21527;SDS011;10925;49.102;-0.370;2022-11-20T11:57:41;31.17;;;6.15;;
21527;SDS011;10925;49.102;-0.370;2022-11-20T12:00:14;29.55;;;4.30;;
21527;SDS011;10925;49.102;-0.370;2022-11-20T12:07:58;26.08;;;4.15;;
21527;SDS011;10925;49.102;-0.370;2022-11-20T12:13:02;25.73;;;4.25;;
21527;SDS011;10925;49.102;-0.370;2022-11-20T12:15:32;32.35;;;4.55;;
21527;SDS011;10925;49.102;-0.370;2022-11-20T12:17:59;29.75;;;5.00;;
21527;SDS011;10925;49.102;-0.370;2022-11-20T12:20:28;27.77;;;4.68;;
21527;SDS011;10925;49.102;-0.370;2022-11-20T12:25:34;28.73;;;4.70;;
21527;SDS011;10925;49.102;-0.370;2022-11-20T12:30:28;29.13;;;3.95;;
21527;SDS011;10925;49.102;-0.370;2022-11-20T12:43:30;23.58;;;3.80;;
21527;SDS011;10925;49.102;-0.370;2022-11-20T12:49:08;21.58;;;3.75;;
21527;SDS011;10925;49.102;-0.370;2022-11-20T13:07:32;23.45;;;2.42;;
21527;SDS011;10925;49.102;-0.370;2022-11-20T13:09:58;24.05;;;3.38;;
21527;SDS011;10925;49.102;-0.370;2022-11-20T13:15:36;24.83;;;3.95;;
21527;SDS011;10925;49.102;-0.370;2022-11-20T13:18:08;33.35;;;5.60;;
21527;SDS011;10925;49.102;-0.370;2022-11-20T13:20:35;26.58;;;5.82;;
21527;SDS011;10925;49.102;-0.370;2022-11-20T13:23:02;31.13;;;5.78;;
21527;SDS011;10925;49.102;-0.370;2022-11-20T13:25:33;24.45;;;5.40;;
21527;SDS011;10925;49.102;-0.370;2022-11-20T13:28:00;29.88;;;5.47;;
21527;SDS011;10925;49.102;-0.370;2022-11-20T13:30:29;24.50;;;4.13;;
21527;SDS011;10925;49.102;-0.370;2022-11-20T13:35:33;25.38;;;4.50;;
21527;SDS011;10925;49.102;-0.370;2022-11-20T13:40:31;29.10;;;6.20;;
21527;SDS011;10925;49.102;-0.370;2022-11-20T13:43:15;24.75;;;4.25;;
21527;SDS011;10925;49.102;-0.370;2022-11-20T13:45:53;21.60;;;3.90;;
21527;SDS011;10925;49.102;-0.370;2022-11-20T13:48:21;22.65;;;4.40;;
21527;SDS011;10925;49.102;-0.370;2022-11-20T13:56:08;17.25;;;3.33;;
21527;SDS011;10925;49.102;-0.370;2022-11-20T14:01:30;22.67;;;4.70;;
21527;SDS011;10925;49.102;-0.370;2022-11-20T14:04:06;24.05;;;3.88;;
21527;SDS011;10925;49.102;-0.370;2022-11-20T14:06:39;22.48;;;4.15;;
21527;SDS011;10925;49.102;-0.370;2022-11-20T14:09:10;27.90;;;5.90;;
21527;SDS011;10925;49.102;-0.370;2022-11-20T14:11:36;31.38;;;6.07;;
21527;SDS011;10925;49.102;-0.370;2022-11-20T14:14:15;29.38;;;4.25;;
21527;SDS011;10925;49.102;-0.370;2022-11-20T14:16:40;30.80;;;3.72;;
21527;SDS011;10925;49.102;-0.370;2022-11-20T14:19:30;25.52;;;3.55;;
21527;SDS011;10925;49.102;-0.370;2022-11-20T14:22:18;27.73;;;3.47;;
21527;SDS011;10925;49.102;-0.370;2022-11-20T14:24:45;26.45;;;3.35;;
21527;SDS011;10925;49.102;-0.370;2022-11-20T14:27:13;22.63;;;2.97;;
21527;SDS011;10925;49.102;-0.370;2022-11-20T14:29:40;20.10;;;2.88;;
21527;SDS011;10925;49.102;-0.370;2022-11-20T14:32:08;16.40;;;2.90;;
21527;SDS011;10925;49.102;-0.370;2022-11-20T14:34:40;20.83;;;2.80;;
21527;SDS011;10925;49.102;-0.370;2022-11-20T14:37:11;20.67;;;2.67;;
21527;SDS011;10925;49.102;-0.370;2022-11-20T14:39:47;17.52;;;2.78;;
21527;SDS011;10925;49.102;-0.370;2022-11-20T14:42:16;18.13;;;2.83;;
21527;SDS011;10925;49.102;-0.370;2022-11-20T14:44:43;13.85;;;2.63;;
21527;SDS011;10925;49.102;-0.370;2022-11-20T14:47:14;16.60;;;2.63;;
21527;SDS011;10925;49.102;-0.370;2022-11-20T14:49:43;17.60;;;2.45;;
21527;SDS011;10925;49.102;-0.370;2022-11-20T14:54:49;16.90;;;2.88;;
21527;SDS011;10925;49.102;-0.370;2022-11-20T14:59:46;18.23;;;3.03;;
21527;SDS011;10925;49.102;-0.370;2022-11-20T15:02:14;23.38;;;3.03;;
21527;SDS011;10925;49.102;-0.370;2022-11-20T15:04:50;16.13;;;2.70;;
21527;SDS011;10925;49.102;-0.370;2022-11-20T15:07:31;19.20;;;2.63;;
21527;SDS011;10925;49.102;-0.370;2022-11-20T15:10:04;26.92;;;3.30;;
21527;SDS011;10925;49.102;-0.370;2022-11-20T15:12:40;18.45;;;2.55;;
21527;SDS011;10925;49.102;-0.370;2022-11-20T15:15:10;20.10;;;2.70;;
21527;SDS011;10925;49.102;-0.370;2022-11-20T15:17:38;21.02;;;3.25;;
21527;SDS011;10925;49.102;-0.370;2022-11-20T15:20:12;12.43;;;2.30;;
21527;SDS011;10925;49.102;-0.370;2022-11-20T15:22:38;16.55;;;3.38;;
21527;SDS011;10925;49.102;-0.370;2022-11-20T15:25:13;17.02;;;2.63;;
21527;SDS011;10925;49.102;-0.370;2022-11-20T15:27:41;16.20;;;2.75;;
21527;SDS011;10925;49.102;-0.370;2022-11-20T15:30:12;16.25;;;3.05;;
21527;SDS011;10925;49.102;-0.370;2022-11-20T15:32:39;18.40;;;2.78;;
21527;SDS011;10925;49.102;-0.370;2022-11-20T15:35:06;20.70;;;3.08;;
21527;SDS011;10925;49.102;-0.370;2022-11-20T15:37:33;15.90;;;3.05;;
21527;SDS011;10925;49.102;-0.370;2022-11-20T15:40:00;20.05;;;2.88;;
21527;SDS011;10925;49.102;-0.370;2022-11-20T15:42:26;13.73;;;2.67;;
21527;SDS011;10925;49.102;-0.370;2022-11-20T15:44:53;14.05;;;2.30;;
21527;SDS011;10925;49.102;-0.370;2022-11-20T15:47:20;25.90;;;4.05;;
21527;SDS011;10925;49.102;-0.370;2022-11-20T15:49:51;15.63;;;2.88;;
21527;SDS011;10925;49.102;-0.370;2022-11-20T15:52:17;25.02;;;2.72;;
21527;SDS011;10925;49.102;-0.370;2022-11-20T15:54:44;18.95;;;2.65;;
21527;SDS011;10925;49.102;-0.370;2022-11-20T15:57:11;20.05;;;2.88;;
21527;SDS011;10925;49.102;-0.370;2022-11-20T15:59:39;22.33;;;2.88;;
21527;SDS011;10925;49.102;-0.370;2022-11-20T16:02:10;22.23;;;2.75;;
21527;SDS011;10925;49.102;-0.370;2022-11-20T16:04:44;17.95;;;3.42;;
21527;SDS011;10925;49.102;-0.370;2022-11-20T16:07:11;19.10;;;4.32;;
21527;SDS011;10925;49.102;-0.370;2022-11-20T16:09:36;17.52;;;3.17;;
21527;SDS011;10925;49.102;-0.370;2022-11-20T16:12:02;15.60;;;3.20;;
21527;SDS011;10925;49.102;-0.370;2022-11-20T16:14:29;18.30;;;3.20;;
21527;SDS011;10925;49.102;-0.370;2022-11-20T16:17:14;30.77;;;3.40;;
21527;SDS011;10925;49.102;-0.370;2022-11-20T16:19:41;22.98;;;3.70;;
21527;SDS011;10925;49.102;-0.370;2022-11-20T16:22:10;22.52;;;4.13;;
21527;SDS011;10925;49.102;-0.370;2022-11-20T16:24:37;25.90;;;5.50;;
21527;SDS011;10925;49.102;-0.370;2022-11-20T16:27:04;31.38;;;5.53;;
21527;SDS011;10925;49.102;-0.370;2022-11-20T16:29:38;30.58;;;6.07;;